sensor_id;sensor_type;location;lat;lon;timestamp;P1;durP1;ratioP1;P2;durP2;ratioP2
54201;SDS011;40108;53.152;5.844;2024-02-21T00:00:45;27.73;;;4.47;;
54201;SDS011;40108;53.152;5.844;2024-02-21T00:03:11;29.20;;;3.83;;
54201;SDS011;40108;53.152;5.844;2024-02-21T00:05:37;30.10;;;3.83;;
54201;SDS011;40108;53.152;5.844;2024-02-21T00:08:03;37.33;;;4.40;;
54201;SDS011;40108;53.152;5.844;2024-02-21T00:10:29;24.85;;;3.88;;
54201;SDS011;40108;53.152;5.844;2024-02-21T00:12:56;26.17;;;4.05;;
54201;SDS011;40108;53.152;5.844;2024-02-21T00:15:24;28.20;;;4.07;;
54201;SDS011;40108;53.152;5.844;2024-02-21T00:17:50;31.20;;;4.43;;
54201;SDS011;40108;53.152;5.844;2024-02-21T00:20:16;30.95;;;4.45;;
54201;SDS011;40108;53.152;5.844;2024-02-21T00:22:42;36.80;;;4.25;;
54201;SDS011;40108;53.152;5.844;2024-02-21T00:25:08;33.80;;;4.72;;
54201;SDS011;40108;53.152;5.844;2024-02-21T00:27:34;32.17;;;4.95;;
54201;SDS011;40108;53.152;5.844;2024-02-21T00:30:00;33.55;;;4.97;;
54201;SDS011;40108;53.152;5.844;2024-02-21T00:32:25;26.95;;;4.65;;
54201;SDS011;40108;53.152;5.844;2024-02-21T00:34:51;38.55;;;4.80;;
54201;SDS011;40108;53.152;5.844;2024-02-21T00:37:17;32.58;;;5.05;;
54201;SDS011;40108;53.152;5.844;2024-02-21T00:39:42;34.63;;;4.68;;
54201;SDS011;40108;53.152;5.844;2024-02-21T00:42:08;38.08;;;4.57;;
54201;SDS011;40108;53.152;5.844;2024-02-21T00:44:34;38.35;;;4.43;;
54201;SDS011;40108;53.152;5.844;2024-02-21T00:46:59;32.97;;;4.80;;
54201;SDS011;40108;53.152;5.844;2024-02-21T00:49:25;35.63;;;4.78;;
54201;SDS011;40108;53.152;5.844;2024-02-21T00:51:51;35.75;;;4.70;;
54201;SDS011;40108;53.152;5.844;2024-02-21T00:54:16;34.53;;;5.53;;
54201;SDS011;40108;53.152;5.844;2024-02-21T00:56:42;41.47;;;5.88;;
54201;SDS011;40108;53.152;5.844;2024-02-21T00:59:08;31.95;;;5.20;;
54201;SDS011;40108;53.152;5.844;2024-02-21T01:01:34;35.70;;;6.50;;
54201;SDS011;40108;53.152;5.844;2024-02-21T01:03:59;46.72;;;6.28;;
54201;SDS011;40108;53.152;5.844;2024-02-21T01:06:25;39.65;;;6.72;;
54201;SDS011;40108;53.152;5.844;2024-02-21T01:08:51;41.42;;;6.43;;
54201;SDS011;40108;53.152;5.844;2024-02-21T01:11:17;38.45;;;7.18;;
54201;SDS011;40108;53.152;5.844;2024-02-21T01:13:43;40.08;;;6.45;;
54201;SDS011;40108;53.152;5.844;2024-02-21T01:16:09;48.65;;;8.07;;
54201;SDS011;40108;53.152;5.844;2024-02-21T01:18:37;38.38;;;8.05;;
54201;SDS011;40108;53.152;5.844;2024-02-21T01:21:04;40.05;;;8.15;;
54201;SDS011;40108;53.152;5.844;2024-02-21T01:23:32;39.75;;;7.93;;
54201;SDS011;40108;53.152;5.844;2024-02-21T01:26:02;36.25;;;8.15;;
54201;SDS011;40108;53.152;5.844;2024-02-21T01:28:28;42.47;;;8.80;;
54201;SDS011;40108;53.152;5.844;2024-02-21T01:30:55;39.58;;;8.35;;
54201;SDS011;40108;53.152;5.844;2024-02-21T01:33:21;41.42;;;7.75;;
54201;SDS011;40108;53.152;5.844;2024-02-21T01:35:47;48.50;;;8.73;;
54201;SDS011;40108;53.152;5.844;2024-02-21T01:38:12;43.00;;;7.13;;
54201;SDS011;40108;53.152;5.844;2024-02-21T01:40:38;43.63;;;7.15;;
54201;SDS011;40108;53.152;5.844;2024-02-21T01:43:14;40.90;;;7.50;;
54201;SDS011;40108;53.152;5.844;2024-02-21T01:45:41;44.60;;;7.82;;
54201;SDS011;40108;53.152;5.844;2024-02-21T01:48:07;37.80;;;6.88;;
54201;SDS011;40108;53.152;5.844;2024-02-21T01:50:33;57.58;;;7.63;;
54201;SDS011;40108;53.152;5.844;2024-02-21T01:52:59;42.38;;;7.07;;
54201;SDS011;40108;53.152;5.844;2024-02-21T01:55:25;46.72;;;6.82;;
54201;SDS011;40108;53.152;5.844;2024-02-21T01:57:51;46.63;;;6.70;;
54201;SDS011;40108;53.152;5.844;2024-02-21T02:00:17;36.95;;;6.63;;
54201;SDS011;40108;53.152;5.844;2024-02-21T02:02:43;42.10;;;6.60;;
54201;SDS011;40108;53.152;5.844;2024-02-21T02:05:10;51.90;;;6.60;;
54201;SDS011;40108;53.152;5.844;2024-02-21T02:07:37;43.50;;;6.55;;
54201;SDS011;40108;53.152;5.844;2024-02-21T02:10:02;47.63;;;6.65;;
54201;SDS011;40108;53.152;5.844;2024-02-21T02:12:28;46.30;;;6.70;;
54201;SDS011;40108;53.152;5.844;2024-02-21T02:15:01;43.63;;;6.72;;
54201;SDS011;40108;53.152;5.844;2024-02-21T02:17:31;53.78;;;6.88;;
54201;SDS011;40108;53.152;5.844;2024-02-21T02:19:57;49.50;;;8.15;;
54201;SDS011;40108;53.152;5.844;2024-02-21T02:22:24;47.28;;;6.63;;
54201;SDS011;40108;53.152;5.844;2024-02-21T02:24:57;42.60;;;7.45;;
54201;SDS011;40108;53.152;5.844;2024-02-21T02:27:23;46.60;;;6.90;;
54201;SDS011;40108;53.152;5.844;2024-02-21T02:29:49;43.47;;;6.32;;
54201;SDS011;40108;53.152;5.844;2024-02-21T02:32:15;41.80;;;6.88;;
54201;SDS011;40108;53.152;5.844;2024-02-21T02:34:41;48.80;;;6.03;;
54201;SDS011;40108;53.152;5.844;2024-02-21T02:37:06;45.72;;;5.88;;
54201;SDS011;40108;53.152;5.844;2024-02-21T02:39:32;52.30;;;7.00;;
54201;SDS011;40108;53.152;5.844;2024-02-21T02:41:58;46.38;;;6.47;;
54201;SDS011;40108;53.152;5.844;2024-02-21T02:44:23;36.47;;;6.45;;
54201;SDS011;40108;53.152;5.844;2024-02-21T02:46:49;56.67;;;7.43;;
54201;SDS011;40108;53.152;5.844;2024-02-21T02:49:15;52.63;;;7.40;;
54201;SDS011;40108;53.152;5.844;2024-02-21T02:51:41;49.47;;;7.10;;
54201;SDS011;40108;53.152;5.844;2024-02-21T02:54:08;50.38;;;7.75;;
54201;SDS011;40108;53.152;5.844;2024-02-21T02:56:34;43.45;;;7.18;;
54201;SDS011;40108;53.152;5.844;2024-02-21T02:58:59;43.45;;;7.10;;
54201;SDS011;40108;53.152;5.844;2024-02-21T03:01:25;47.95;;;8.32;;
54201;SDS011;40108;53.152;5.844;2024-02-21T03:03:51;63.72;;;7.95;;
54201;SDS011;40108;53.152;5.844;2024-02-21T03:06:17;43.60;;;7.28;;
54201;SDS011;40108;53.152;5.844;2024-02-21T03:08:42;46.58;;;6.70;;
54201;SDS011;40108;53.152;5.844;2024-02-21T03:11:08;47.20;;;6.80;;
54201;SDS011;40108;53.152;5.844;2024-02-21T03:13:34;48.55;;;7.47;;
54201;SDS011;40108;53.152;5.844;2024-02-21T03:15:59;43.63;;;7.93;;
54201;SDS011;40108;53.152;5.844;2024-02-21T03:18:25;46.05;;;7.35;;
54201;SDS011;40108;53.152;5.844;2024-02-21T03:20:51;51.55;;;7.60;;
54201;SDS011;40108;53.152;5.844;2024-02-21T03:23:16;49.95;;;7.88;;
54201;SDS011;40108;53.152;5.844;2024-02-21T03:25:42;57.25;;;7.82;;
54201;SDS011;40108;53.152;5.844;2024-02-21T03:28:08;48.20;;;7.63;;
54201;SDS011;40108;53.152;5.844;2024-02-21T03:30:33;46.15;;;6.68;;
54201;SDS011;40108;53.152;5.844;2024-02-21T03:32:59;46.10;;;6.72;;
54201;SDS011;40108;53.152;5.844;2024-02-21T03:35:26;49.08;;;7.68;;
54201;SDS011;40108;53.152;5.844;2024-02-21T03:37:52;46.03;;;7.65;;
54201;SDS011;40108;53.152;5.844;2024-02-21T03:40:18;57.22;;;6.95;;
54201;SDS011;40108;53.152;5.844;2024-02-21T03:42:44;41.45;;;6.72;;
54201;SDS011;40108;53.152;5.844;2024-02-21T03:45:09;47.28;;;7.75;;
54201;SDS011;40108;53.152;5.844;2024-02-21T03:47:35;47.83;;;6.60;;
54201;SDS011;40108;53.152;5.844;2024-02-21T03:50:01;40.42;;;6.53;;
54201;SDS011;40108;53.152;5.844;2024-02-21T03:52:26;45.45;;;6.18;;
54201;SDS011;40108;53.152;5.844;2024-02-21T03:54:52;42.40;;;6.07;;
54201;SDS011;40108;53.152;5.844;2024-02-21T03:57:20;48.38;;;6.45;;
54201;SDS011;40108;53.152;5.844;2024-02-21T03:59:45;49.53;;;6.90;;
54201;SDS011;40108;53.152;5.844;2024-02-21T04:02:11;40.90;;;6.57;;
54201;SDS011;40108;53.152;5.844;2024-02-21T04:04:37;42.25;;;6.63;;
54201;SDS011;40108;53.152;5.844;2024-02-21T04:07:03;45.17;;;6.32;;
54201;SDS011;40108;53.152;5.844;2024-02-21T04:09:33;40.78;;;6.57;;
54201;SDS011;40108;53.152;5.844;2024-02-21T04:11:59;47.47;;;6.38;;
54201;SDS011;40108;53.152;5.844;2024-02-21T04:14:25;43.63;;;6.78;;
54201;SDS011;40108;53.152;5.844;2024-02-21T04:16:51;34.63;;;5.75;;
54201;SDS011;40108;53.152;5.844;2024-02-21T04:19:17;36.92;;;5.55;;
54201;SDS011;40108;53.152;5.844;2024-02-21T04:21:42;46.85;;;6.00;;
54201;SDS011;40108;53.152;5.844;2024-02-21T04:24:08;36.55;;;5.90;;
54201;SDS011;40108;53.152;5.844;2024-02-21T04:26:34;35.70;;;5.82;;
54201;SDS011;40108;53.152;5.844;2024-02-21T04:29:00;30.17;;;5.45;;
54201;SDS011;40108;53.152;5.844;2024-02-21T04:31:25;40.20;;;5.72;;
54201;SDS011;40108;53.152;5.844;2024-02-21T04:33:51;43.78;;;5.72;;
54201;SDS011;40108;53.152;5.844;2024-02-21T04:36:17;42.80;;;6.68;;
54201;SDS011;40108;53.152;5.844;2024-02-21T04:38:42;37.00;;;6.20;;
54201;SDS011;40108;53.152;5.844;2024-02-21T04:41:08;44.55;;;6.03;;
54201;SDS011;40108;53.152;5.844;2024-02-21T04:43:34;36.42;;;5.68;;
54201;SDS011;40108;53.152;5.844;2024-02-21T04:46:00;37.92;;;6.05;;
54201;SDS011;40108;53.152;5.844;2024-02-21T04:48:26;40.20;;;6.90;;
54201;SDS011;40108;53.152;5.844;2024-02-21T04:50:51;41.55;;;6.13;;
54201;SDS011;40108;53.152;5.844;2024-02-21T04:53:17;40.63;;;6.38;;
54201;SDS011;40108;53.152;5.844;2024-02-21T04:55:43;41.38;;;6.40;;
54201;SDS011;40108;53.152;5.844;2024-02-21T04:58:09;41.13;;;5.85;;
54201;SDS011;40108;53.152;5.844;2024-02-21T05:00:35;41.95;;;6.15;;
54201;SDS011;40108;53.152;5.844;2024-02-21T05:03:00;46.53;;;5.97;;
54201;SDS011;40108;53.152;5.844;2024-02-21T05:05:26;40.45;;;5.93;;
54201;SDS011;40108;53.152;5.844;2024-02-21T05:07:52;50.17;;;6.18;;
54201;SDS011;40108;53.152;5.844;2024-02-21T05:10:17;43.97;;;7.00;;
54201;SDS011;40108;53.152;5.844;2024-02-21T05:12:44;50.72;;;7.38;;
54201;SDS011;40108;53.152;5.844;2024-02-21T05:15:10;50.10;;;7.38;;
54201;SDS011;40108;53.152;5.844;2024-02-21T05:17:36;53.92;;;6.97;;
54201;SDS011;40108;53.152;5.844;2024-02-21T05:20:01;54.72;;;7.90;;
54201;SDS011;40108;53.152;5.844;2024-02-21T05:22:28;45.83;;;7.10;;
54201;SDS011;40108;53.152;5.844;2024-02-21T05:24:54;37.63;;;8.27;;
54201;SDS011;40108;53.152;5.844;2024-02-21T05:27:20;50.15;;;7.70;;
54201;SDS011;40108;53.152;5.844;2024-02-21T05:29:46;45.25;;;7.90;;
54201;SDS011;40108;53.152;5.844;2024-02-21T05:32:13;48.85;;;8.13;;
54201;SDS011;40108;53.152;5.844;2024-02-21T05:34:39;51.33;;;8.10;;
54201;SDS011;40108;53.152;5.844;2024-02-21T05:37:04;51.33;;;7.93;;
54201;SDS011;40108;53.152;5.844;2024-02-21T05:39:30;48.97;;;7.72;;
54201;SDS011;40108;53.152;5.844;2024-02-21T05:41:56;47.33;;;7.63;;
54201;SDS011;40108;53.152;5.844;2024-02-21T05:44:21;42.60;;;6.95;;
54201;SDS011;40108;53.152;5.844;2024-02-21T05:46:47;56.42;;;7.90;;
54201;SDS011;40108;53.152;5.844;2024-02-21T05:49:13;39.47;;;7.70;;
54201;SDS011;40108;53.152;5.844;2024-02-21T05:51:39;47.55;;;8.25;;
54201;SDS011;40108;53.152;5.844;2024-02-21T05:54:05;45.67;;;7.72;;
54201;SDS011;40108;53.152;5.844;2024-02-21T05:56:32;44.45;;;8.13;;
54201;SDS011;40108;53.152;5.844;2024-02-21T05:58:58;42.40;;;7.20;;
54201;SDS011;40108;53.152;5.844;2024-02-21T06:01:24;46.50;;;7.00;;
54201;SDS011;40108;53.152;5.844;2024-02-21T06:03:49;42.08;;;6.68;;
54201;SDS011;40108;53.152;5.844;2024-02-21T06:06:15;39.67;;;7.38;;
54201;SDS011;40108;53.152;5.844;2024-02-21T06:08:41;42.90;;;6.93;;
54201;SDS011;40108;53.152;5.844;2024-02-21T06:11:07;45.13;;;7.30;;
54201;SDS011;40108;53.152;5.844;2024-02-21T06:13:32;48.47;;;7.60;;
54201;SDS011;40108;53.152;5.844;2024-02-21T06:15:58;40.28;;;6.88;;
54201;SDS011;40108;53.152;5.844;2024-02-21T06:18:24;47.15;;;7.13;;
54201;SDS011;40108;53.152;5.844;2024-02-21T06:20:49;39.97;;;7.90;;
54201;SDS011;40108;53.152;5.844;2024-02-21T06:23:15;52.47;;;7.85;;
54201;SDS011;40108;53.152;5.844;2024-02-21T06:25:42;44.10;;;7.70;;
54201;SDS011;40108;53.152;5.844;2024-02-21T06:28:08;41.85;;;7.47;;
54201;SDS011;40108;53.152;5.844;2024-02-21T06:30:33;50.08;;;7.95;;
54201;SDS011;40108;53.152;5.844;2024-02-21T06:33:00;48.88;;;7.68;;
54201;SDS011;40108;53.152;5.844;2024-02-21T06:35:27;49.67;;;8.15;;
54201;SDS011;40108;53.152;5.844;2024-02-21T06:37:53;49.60;;;9.18;;
54201;SDS011;40108;53.152;5.844;2024-02-21T06:40:22;53.80;;;9.52;;
54201;SDS011;40108;53.152;5.844;2024-02-21T06:42:48;47.78;;;9.10;;
54201;SDS011;40108;53.152;5.844;2024-02-21T06:45:15;55.70;;;8.85;;
54201;SDS011;40108;53.152;5.844;2024-02-21T06:47:41;58.25;;;8.15;;
54201;SDS011;40108;53.152;5.844;2024-02-21T06:50:07;51.22;;;8.75;;
54201;SDS011;40108;53.152;5.844;2024-02-21T06:52:33;67.93;;;9.98;;
54201;SDS011;40108;53.152;5.844;2024-02-21T06:54:59;50.72;;;10.13;;
54201;SDS011;40108;53.152;5.844;2024-02-21T06:57:26;54.22;;;11.30;;
54201;SDS011;40108;53.152;5.844;2024-02-21T06:59:53;60.72;;;13.15;;
54201;SDS011;40108;53.152;5.844;2024-02-21T07:02:19;72.47;;;13.45;;
54201;SDS011;40108;53.152;5.844;2024-02-21T07:04:44;64.30;;;12.82;;
54201;SDS011;40108;53.152;5.844;2024-02-21T07:07:10;71.97;;;13.82;;
54201;SDS011;40108;53.152;5.844;2024-02-21T07:09:36;67.68;;;15.40;;
54201;SDS011;40108;53.152;5.844;2024-02-21T07:12:02;68.55;;;16.30;;
54201;SDS011;40108;53.152;5.844;2024-02-21T07:14:29;67.30;;;15.93;;
54201;SDS011;40108;53.152;5.844;2024-02-21T07:16:54;71.63;;;16.45;;
54201;SDS011;40108;53.152;5.844;2024-02-21T07:19:22;65.75;;;17.25;;
54201;SDS011;40108;53.152;5.844;2024-02-21T07:21:47;63.92;;;17.45;;
54201;SDS011;40108;53.152;5.844;2024-02-21T07:24:13;63.63;;;19.13;;
54201;SDS011;40108;53.152;5.844;2024-02-21T07:26:43;75.88;;;19.48;;
54201;SDS011;40108;53.152;5.844;2024-02-21T07:29:09;60.22;;;17.98;;
54201;SDS011;40108;53.152;5.844;2024-02-21T07:31:41;74.25;;;22.05;;
54201;SDS011;40108;53.152;5.844;2024-02-21T07:34:08;69.60;;;20.77;;
54201;SDS011;40108;53.152;5.844;2024-02-21T07:36:34;85.40;;;21.80;;
54201;SDS011;40108;53.152;5.844;2024-02-21T07:39:00;86.85;;;23.10;;
54201;SDS011;40108;53.152;5.844;2024-02-21T07:41:25;86.63;;;25.90;;
54201;SDS011;40108;53.152;5.844;2024-02-21T07:43:51;73.47;;;21.55;;
54201;SDS011;40108;53.152;5.844;2024-02-21T07:46:18;95.40;;;24.25;;
54201;SDS011;40108;53.152;5.844;2024-02-21T07:48:46;83.75;;;22.13;;
54201;SDS011;40108;53.152;5.844;2024-02-21T07:51:13;77.45;;;22.17;;
54201;SDS011;40108;53.152;5.844;2024-02-21T07:53:38;82.15;;;20.20;;
54201;SDS011;40108;53.152;5.844;2024-02-21T07:56:10;55.17;;;13.20;;
54201;SDS011;40108;53.152;5.844;2024-02-21T07:58:36;41.10;;;10.75;;
54201;SDS011;40108;53.152;5.844;2024-02-21T08:01:01;39.13;;;9.85;;
54201;SDS011;40108;53.152;5.844;2024-02-21T08:03:27;53.17;;;11.23;;
54201;SDS011;40108;53.152;5.844;2024-02-21T08:05:53;38.90;;;9.95;;
54201;SDS011;40108;53.152;5.844;2024-02-21T08:08:18;46.75;;;11.40;;
54201;SDS011;40108;53.152;5.844;2024-02-21T08:10:46;48.30;;;12.38;;
54201;SDS011;40108;53.152;5.844;2024-02-21T08:13:12;40.53;;;12.63;;
54201;SDS011;40108;53.152;5.844;2024-02-21T08:15:38;40.92;;;13.05;;
54201;SDS011;40108;53.152;5.844;2024-02-21T08:18:05;38.63;;;12.43;;
54201;SDS011;40108;53.152;5.844;2024-02-21T08:20:30;39.15;;;11.18;;
54201;SDS011;40108;53.152;5.844;2024-02-21T08:22:56;35.15;;;8.65;;
54201;SDS011;40108;53.152;5.844;2024-02-21T08:25:22;31.15;;;7.70;;
54201;SDS011;40108;53.152;5.844;2024-02-21T08:27:47;36.92;;;7.55;;
54201;SDS011;40108;53.152;5.844;2024-02-21T08:30:13;29.25;;;9.32;;
54201;SDS011;40108;53.152;5.844;2024-02-21T08:32:39;38.13;;;11.10;;
54201;SDS011;40108;53.152;5.844;2024-02-21T08:35:05;35.15;;;12.27;;
54201;SDS011;40108;53.152;5.844;2024-02-21T08:37:31;33.92;;;14.40;;
54201;SDS011;40108;53.152;5.844;2024-02-21T08:39:57;38.22;;;16.25;;
54201;SDS011;40108;53.152;5.844;2024-02-21T08:42:22;32.38;;;14.02;;
54201;SDS011;40108;53.152;5.844;2024-02-21T08:44:48;47.22;;;20.45;;
54201;SDS011;40108;53.152;5.844;2024-02-21T08:47:14;47.17;;;21.77;;
54201;SDS011;40108;53.152;5.844;2024-02-21T08:49:40;43.70;;;21.30;;
54201;SDS011;40108;53.152;5.844;2024-02-21T08:52:05;38.65;;;21.85;;
54201;SDS011;40108;53.152;5.844;2024-02-21T08:54:31;42.30;;;24.42;;
54201;SDS011;40108;53.152;5.844;2024-02-21T08:56:58;47.22;;;23.60;;
54201;SDS011;40108;53.152;5.844;2024-02-21T08:59:23;42.75;;;22.02;;
54201;SDS011;40108;53.152;5.844;2024-02-21T09:01:51;42.67;;;24.10;;
54201;SDS011;40108;53.152;5.844;2024-02-21T09:04:18;41.78;;;22.98;;
54201;SDS011;40108;53.152;5.844;2024-02-21T09:06:44;38.97;;;20.00;;
54201;SDS011;40108;53.152;5.844;2024-02-21T09:09:11;39.83;;;22.92;;
54201;SDS011;40108;53.152;5.844;2024-02-21T09:11:37;33.80;;;20.65;;
54201;SDS011;40108;53.152;5.844;2024-02-21T09:14:03;35.20;;;22.90;;
54201;SDS011;40108;53.152;5.844;2024-02-21T09:16:30;33.60;;;21.05;;
54201;SDS011;40108;53.152;5.844;2024-02-21T09:18:59;41.20;;;22.23;;
54201;SDS011;40108;53.152;5.844;2024-02-21T09:21:25;33.60;;;20.95;;
54201;SDS011;40108;53.152;5.844;2024-02-21T09:23:51;34.40;;;21.90;;
54201;SDS011;40108;53.152;5.844;2024-02-21T09:26:17;31.27;;;21.65;;
54201;SDS011;40108;53.152;5.844;2024-02-21T09:28:43;32.20;;;21.70;;
54201;SDS011;40108;53.152;5.844;2024-02-21T09:31:12;32.63;;;18.15;;
54201;SDS011;40108;53.152;5.844;2024-02-21T09:33:37;33.88;;;22.25;;
54201;SDS011;40108;53.152;5.844;2024-02-21T09:36:04;21.88;;;15.23;;
54201;SDS011;40108;53.152;5.844;2024-02-21T09:38:32;26.30;;;18.60;;
54201;SDS011;40108;53.152;5.844;2024-02-21T09:40:59;36.83;;;22.25;;
54201;SDS011;40108;53.152;5.844;2024-02-21T09:43:36;36.58;;;22.52;;
54201;SDS011;40108;53.152;5.844;2024-02-21T09:46:06;39.08;;;22.58;;
54201;SDS011;40108;53.152;5.844;2024-02-21T09:51:09;31.70;;;21.60;;
54201;SDS011;40108;53.152;5.844;2024-02-21T09:53:39;31.92;;;20.40;;
54201;SDS011;40108;53.152;5.844;2024-02-21T09:56:10;32.40;;;22.63;;
54201;SDS011;40108;53.152;5.844;2024-02-21T09:58:36;31.10;;;22.38;;
54201;SDS011;40108;53.152;5.844;2024-02-21T10:01:02;32.25;;;21.17;;
54201;SDS011;40108;53.152;5.844;2024-02-21T10:03:31;32.85;;;21.65;;
54201;SDS011;40108;53.152;5.844;2024-02-21T10:05:58;27.35;;;20.10;;
54201;SDS011;40108;53.152;5.844;2024-02-21T10:08:26;34.85;;;20.25;;
54201;SDS011;40108;53.152;5.844;2024-02-21T10:10:52;29.65;;;20.75;;
54201;SDS011;40108;53.152;5.844;2024-02-21T10:16:00;35.08;;;21.05;;
54201;SDS011;40108;53.152;5.844;2024-02-21T10:18:29;44.20;;;21.80;;
54201;SDS011;40108;53.152;5.844;2024-02-21T10:21:07;38.30;;;20.75;;
54201;SDS011;40108;53.152;5.844;2024-02-21T10:23:46;36.70;;;20.52;;
54201;SDS011;40108;53.152;5.844;2024-02-21T10:26:17;38.60;;;21.75;;
54201;SDS011;40108;53.152;5.844;2024-02-21T10:28:43;37.38;;;21.10;;
54201;SDS011;40108;53.152;5.844;2024-02-21T10:31:10;31.55;;;20.83;;
54201;SDS011;40108;53.152;5.844;2024-02-21T10:33:53;33.60;;;21.42;;
54201;SDS011;40108;53.152;5.844;2024-02-21T10:36:23;32.88;;;20.63;;
54201;SDS011;40108;53.152;5.844;2024-02-21T10:38:52;34.45;;;20.42;;
54201;SDS011;40108;53.152;5.844;2024-02-21T10:41:19;28.33;;;18.33;;
54201;SDS011;40108;53.152;5.844;2024-02-21T10:43:50;25.30;;;16.35;;
54201;SDS011;40108;53.152;5.844;2024-02-21T10:48:45;30.27;;;18.75;;
54201;SDS011;40108;53.152;5.844;2024-02-21T10:51:19;30.25;;;20.40;;
54201;SDS011;40108;53.152;5.844;2024-02-21T10:56:36;25.67;;;16.65;;
54201;SDS011;40108;53.152;5.844;2024-02-21T10:59:06;26.88;;;18.67;;
54201;SDS011;40108;53.152;5.844;2024-02-21T11:01:33;26.30;;;17.15;;
54201;SDS011;40108;53.152;5.844;2024-02-21T11:04:02;26.33;;;18.45;;
54201;SDS011;40108;53.152;5.844;2024-02-21T11:06:34;28.55;;;18.45;;
54201;SDS011;40108;53.152;5.844;2024-02-21T11:09:11;29.27;;;18.15;;
54201;SDS011;40108;53.152;5.844;2024-02-21T11:11:40;31.48;;;18.55;;
54201;SDS011;40108;53.152;5.844;2024-02-21T11:14:08;26.83;;;17.98;;
54201;SDS011;40108;53.152;5.844;2024-02-21T11:16:37;23.23;;;17.30;;
54201;SDS011;40108;53.152;5.844;2024-02-21T11:19:28;25.23;;;16.60;;
54201;SDS011;40108;53.152;5.844;2024-02-21T11:21:54;26.20;;;17.15;;
54201;SDS011;40108;53.152;5.844;2024-02-21T11:27:13;26.50;;;17.67;;
54201;SDS011;40108;53.152;5.844;2024-02-21T11:29:46;24.58;;;16.38;;
54201;SDS011;40108;53.152;5.844;2024-02-21T11:32:16;23.00;;;16.25;;
54201;SDS011;40108;53.152;5.844;2024-02-21T11:35:03;30.90;;;17.85;;
54201;SDS011;40108;53.152;5.844;2024-02-21T11:37:30;25.05;;;16.88;;
54201;SDS011;40108;53.152;5.844;2024-02-21T11:40:02;24.80;;;17.30;;
54201;SDS011;40108;53.152;5.844;2024-02-21T11:42:29;22.27;;;15.73;;
54201;SDS011;40108;53.152;5.844;2024-02-21T11:44:59;26.33;;;18.35;;
54201;SDS011;40108;53.152;5.844;2024-02-21T11:47:25;25.55;;;15.35;;
54201;SDS011;40108;53.152;5.844;2024-02-21T11:49:51;29.52;;;17.83;;
54201;SDS011;40108;53.152;5.844;2024-02-21T11:52:23;27.38;;;18.20;;
54201;SDS011;40108;53.152;5.844;2024-02-21T11:54:53;21.63;;;15.32;;
54201;SDS011;40108;53.152;5.844;2024-02-21T11:57:20;18.83;;;13.00;;
54201;SDS011;40108;53.152;5.844;2024-02-21T11:59:46;27.83;;;18.52;;
54201;SDS011;40108;53.152;5.844;2024-02-21T12:02:13;19.65;;;15.73;;
54201;SDS011;40108;53.152;5.844;2024-02-21T12:04:39;20.20;;;14.25;;
54201;SDS011;40108;53.152;5.844;2024-02-21T12:07:06;25.83;;;16.90;;
54201;SDS011;40108;53.152;5.844;2024-02-21T12:09:34;16.10;;;11.43;;
54201;SDS011;40108;53.152;5.844;2024-02-21T12:12:03;26.65;;;16.73;;
54201;SDS011;40108;53.152;5.844;2024-02-21T12:14:31;23.30;;;14.77;;
54201;SDS011;40108;53.152;5.844;2024-02-21T12:16:58;21.73;;;15.15;;
54201;SDS011;40108;53.152;5.844;2024-02-21T12:19:25;22.77;;;15.30;;
54201;SDS011;40108;53.152;5.844;2024-02-21T12:21:50;17.02;;;12.40;;
54201;SDS011;40108;53.152;5.844;2024-02-21T12:24:25;23.20;;;14.32;;
54201;SDS011;40108;53.152;5.844;2024-02-21T12:26:52;17.05;;;11.38;;
54201;SDS011;40108;53.152;5.844;2024-02-21T12:29:21;18.63;;;10.75;;
54201;SDS011;40108;53.152;5.844;2024-02-21T12:31:48;16.85;;;12.23;;
54201;SDS011;40108;53.152;5.844;2024-02-21T12:34:14;20.35;;;12.48;;
54201;SDS011;40108;53.152;5.844;2024-02-21T12:36:41;19.20;;;11.80;;
54201;SDS011;40108;53.152;5.844;2024-02-21T12:39:08;15.60;;;10.98;;
54201;SDS011;40108;53.152;5.844;2024-02-21T12:41:37;21.15;;;12.23;;
54201;SDS011;40108;53.152;5.844;2024-02-21T12:44:04;14.88;;;10.25;;
54201;SDS011;40108;53.152;5.844;2024-02-21T12:46:34;13.77;;;10.65;;
54201;SDS011;40108;53.152;5.844;2024-02-21T12:49:00;11.05;;;7.20;;
54201;SDS011;40108;53.152;5.844;2024-02-21T12:51:32;15.13;;;9.93;;
54201;SDS011;40108;53.152;5.844;2024-02-21T12:53:58;13.75;;;9.25;;
54201;SDS011;40108;53.152;5.844;2024-02-21T12:56:24;15.40;;;10.50;;
54201;SDS011;40108;53.152;5.844;2024-02-21T12:58:53;14.00;;;9.95;;
54201;SDS011;40108;53.152;5.844;2024-02-21T13:01:19;13.52;;;9.20;;
54201;SDS011;40108;53.152;5.844;2024-02-21T13:03:46;14.55;;;8.45;;
54201;SDS011;40108;53.152;5.844;2024-02-21T13:06:12;8.88;;;5.50;;
54201;SDS011;40108;53.152;5.844;2024-02-21T13:08:38;9.23;;;5.97;;
54201;SDS011;40108;53.152;5.844;2024-02-21T13:11:04;7.00;;;5.15;;
54201;SDS011;40108;53.152;5.844;2024-02-21T13:13:31;9.50;;;6.32;;
54201;SDS011;40108;53.152;5.844;2024-02-21T13:15:57;11.02;;;6.93;;
54201;SDS011;40108;53.152;5.844;2024-02-21T13:18:23;11.90;;;7.72;;
54201;SDS011;40108;53.152;5.844;2024-02-21T13:20:49;11.23;;;7.03;;
54201;SDS011;40108;53.152;5.844;2024-02-21T13:23:14;12.32;;;7.70;;
54201;SDS011;40108;53.152;5.844;2024-02-21T13:25:40;10.60;;;6.28;;
54201;SDS011;40108;53.152;5.844;2024-02-21T13:28:06;10.88;;;7.10;;
54201;SDS011;40108;53.152;5.844;2024-02-21T13:30:32;11.48;;;6.15;;
54201;SDS011;40108;53.152;5.844;2024-02-21T13:32:57;11.40;;;7.10;;
54201;SDS011;40108;53.152;5.844;2024-02-21T13:35:23;9.70;;;6.30;;
54201;SDS011;40108;53.152;5.844;2024-02-21T13:37:49;10.40;;;5.60;;
54201;SDS011;40108;53.152;5.844;2024-02-21T13:40:15;11.57;;;6.82;;
54201;SDS011;40108;53.152;5.844;2024-02-21T13:42:41;9.90;;;7.25;;
54201;SDS011;40108;53.152;5.844;2024-02-21T13:45:08;10.88;;;7.18;;
54201;SDS011;40108;53.152;5.844;2024-02-21T13:47:34;6.43;;;5.57;;
54201;SDS011;40108;53.152;5.844;2024-02-21T13:50:04;11.13;;;6.97;;
54201;SDS011;40108;53.152;5.844;2024-02-21T13:52:34;12.68;;;7.50;;
54201;SDS011;40108;53.152;5.844;2024-02-21T13:55:00;8.63;;;5.93;;
54201;SDS011;40108;53.152;5.844;2024-02-21T13:57:25;9.98;;;7.60;;
54201;SDS011;40108;53.152;5.844;2024-02-21T13:59:51;9.13;;;7.00;;
54201;SDS011;40108;53.152;5.844;2024-02-21T14:02:17;11.23;;;6.72;;
54201;SDS011;40108;53.152;5.844;2024-02-21T14:04:43;7.93;;;5.32;;
54201;SDS011;40108;53.152;5.844;2024-02-21T14:07:08;8.90;;;7.05;;
54201;SDS011;40108;53.152;5.844;2024-02-21T14:09:34;7.18;;;6.18;;
54201;SDS011;40108;53.152;5.844;2024-02-21T14:12:00;9.05;;;6.47;;
54201;SDS011;40108;53.152;5.844;2024-02-21T14:14:27;11.15;;;7.65;;
54201;SDS011;40108;53.152;5.844;2024-02-21T14:16:52;9.40;;;7.60;;
54201;SDS011;40108;53.152;5.844;2024-02-21T14:19:18;8.98;;;6.35;;
54201;SDS011;40108;53.152;5.844;2024-02-21T14:21:44;11.93;;;8.23;;
54201;SDS011;40108;53.152;5.844;2024-02-21T14:24:10;8.80;;;6.65;;
54201;SDS011;40108;53.152;5.844;2024-02-21T14:26:37;10.88;;;7.22;;
54201;SDS011;40108;53.152;5.844;2024-02-21T14:29:04;8.90;;;6.30;;
54201;SDS011;40108;53.152;5.844;2024-02-21T14:31:31;14.02;;;7.43;;
54201;SDS011;40108;53.152;5.844;2024-02-21T14:33:57;9.15;;;7.45;;
54201;SDS011;40108;53.152;5.844;2024-02-21T14:36:23;10.32;;;7.35;;
54201;SDS011;40108;53.152;5.844;2024-02-21T14:38:51;8.18;;;5.95;;
54201;SDS011;40108;53.152;5.844;2024-02-21T14:41:17;10.65;;;6.90;;